Terminal Aerodrome Forecast
Issued by NWS

Home | Current Version | Previous Version | Text Only | Print | Product List | Glossary Off
Versions: 1 2 3 4 5 6 7 8 9 10 11 12 13 14 15 16 17 18 19

000
FTUS43 KGRB 242120 AAA
TAFAUW
TAF AMD
KAUW 242120Z 2421/2518 02012G20KT P6SM -SN SCT015 OVC025
      TEMPO 2422/2501 4SM -SN BR BKN015
     FM250100 35014G22KT 3SM -SN OVC015
     FM250900 32012G20KT P6SM -SN SCT015 OVC025 PROB30 2509/2513 4SM
      -SN BKN015
     FM251400 31014G22KT P6SM SCT020 OVC040=

USA.gov is the U.S. government's official web portal to all federal, state and local government web resources and services.